Beehive, Montana
Current Conditions -  °F | °C
As of 8:53 PM on Saturday 22 Nov 2014 (Local Time) from KLVM Reporting Station
Overcast Overcast  
Wind Chill: 37°   Ceiling: 6000
Heat Index: 37°   Visibility: 10mi
Dew Point: 16°   Wind: 0mph
Humidity: 42%   Direction: NA
Pressure: 29.65"   Gusts: NA
Location:  45.4577°N, 109.823°W
Report Text: KLVM 230353Z AUTO 00000KT 10SM OVC060 03/M09 A2965 RMK AO2 SLP043 T00281089
Loading
Personal Weather Stations






























Interactive Weather Map New forecast layout! Learn more

10-Day Weather Forecast

Advertisements
Track Severe Weather on mobile